To NAV CANADA Home Page Login to a new session Search on AWWS site Feedback and Comments Disclaimer Vers la page française équivalente Tips FAQ What's new on the site To the Forecasts and Observations / NOTAM section To "File a Flight Plan" website Publications and other links Update of the User's profile FIC Telephone Numbers My Weather Data Folder Route Weather Data Regional Weather Data Local Weather Data To the Forecasts and Observations / NOTAM section
Request Generated 08/22/2017 at 01:34:17 UTC . Weather information available at that time is displayed.

METAR/TAF

QUEBEC/JEAN LESAGE INTL/QC    

METAR CYQB 220100Z 23009KT 15SM TS SCT055CB OVC075 23/18 A2992 RMK
CB4AC4 SLP134 DENSITY ALT 1300FT=
SPECI CYQB 220040Z 24007KT 15SM TS BKN057CB OVC210 23/19 A2992 RMK
CB5CI3 SLP134 DENSITY ALT 1300FT=
METAR CYQB 220000Z 23006KT 15SM BKN045 BKN080 OVC210 23/19 A2992 RMK
SC5AC2CI1 SLP134 DENSITY ALT 1300FT=
METAR CYQB 212300Z 22010KT 25SM SCT050 BKN069 BKN220 24/18 A2991 RMK
CU3AC3CI1 SLP130 DENSITY ALT 1400FT=

TAF AMD CYQB 220102Z 2201/2224 23010KT P6SM OVC070 TEMPO 2201/2202
VRB15G30KT 2SM +TSRA BKN030CB
FM220200 27005KT P6SM SCT070
FM220500 25005KT P6SM -SHRA BKN025 OVC070 PROB30 2205/2208 3SM
TSRA BR OVC020CB
FM220800 06005KT 4SM BR SCT006 BKN020 PROB30 2208/2213 2SM TSRA
BR BKN004 OVC020CB
FM221500 12010KT P6SM FEW010 SCT030 BKN180 PROB30 2219/2221
VRB25G40KT 1SM +TSRA BKN020CB
FM222100 27015G25KT 4SM SHRA BKN050 OVC120 TEMPO 2221/2223
VRB25G40KT 1SM +TSRA BKN015 OVC025CB PROB30 2221/2223 VRB35G55KT
1/2SM +TSGRRA BKN008 OVC020CB
FM222300 23012KT 6SM -SHRA BR BKN006 OVC030
RMK NXT FCST BY 220600Z=
Your time UTC time
Weather data provided by Environment Canada and NAV CANADA